createdAt,value
2022-08-02T00:00:39.057Z,99.90
2022-08-02T00:03:06.160Z,99.90
2022-08-02T00:05:33.622Z,99.90
2022-08-02T00:08:01.141Z,99.90
2022-08-02T00:10:28.677Z,99.90
2022-08-02T00:12:58.110Z,99.90
2022-08-02T00:15:25.731Z,99.90
2022-08-02T00:17:53.002Z,99.90
2022-08-02T00:20:20.492Z,99.90
2022-08-02T00:22:47.880Z,99.90
2022-08-02T00:25:15.055Z,99.90
2022-08-02T00:27:42.489Z,99.90
2022-08-02T00:30:10.529Z,99.90
2022-08-02T00:32:37.712Z,99.90
2022-08-02T00:35:05.333Z,99.90
2022-08-02T00:37:32.688Z,99.90
2022-08-02T00:40:00.156Z,99.90
2022-08-02T00:42:27.597Z,99.90
2022-08-02T00:44:54.657Z,99.90
2022-08-02T00:47:21.998Z,99.90
2022-08-02T00:49:49.238Z,99.90
2022-08-02T00:52:16.712Z,99.90
2022-08-02T00:54:44.026Z,99.90
2022-08-02T00:57:11.201Z,99.90
2022-08-02T00:59:38.537Z,99.90
2022-08-02T01:02:06.013Z,99.90
2022-08-02T01:04:33.292Z,99.90
2022-08-02T01:07:12.586Z,99.90
2022-08-02T01:09:44.601Z,99.90
2022-08-02T01:12:13.183Z,99.90
2022-08-02T01:14:46.842Z,99.90
2022-08-02T01:17:36.941Z,99.90
2022-08-02T01:20:09.989Z,99.90
2022-08-02T01:23:01.506Z,99.90
2022-08-02T01:25:57.360Z,99.90
2022-08-02T01:28:36.593Z,99.90
2022-08-02T01:31:29.815Z,99.90
2022-08-02T01:34:23.499Z,99.90
2022-08-02T01:36:58.282Z,99.90
2022-08-02T01:39:32.403Z,99.90
2022-08-02T01:42:01.672Z,99.90
2022-08-02T01:44:33.667Z,99.90
2022-08-02T01:47:06.041Z,99.90
2022-08-02T01:49:36.188Z,99.90
2022-08-02T01:52:23.404Z,99.90
2022-08-02T01:54:57.172Z,99.90
2022-08-02T01:57:26.579Z,99.90
2022-08-02T01:59:58.322Z,99.90
2022-08-02T02:02:31.906Z,99.90
2022-08-02T02:05:01.781Z,99.90
2022-08-02T02:07:32.336Z,99.90
2022-08-02T02:10:01.279Z,99.90
2022-08-02T02:12:31.851Z,99.90
2022-08-02T02:15:00.882Z,99.90
2022-08-02T02:18:10.779Z,99.90
2022-08-02T02:20:19.334Z,99.90
2022-08-02T02:22:49.876Z,99.90
2022-08-02T02:25:32.953Z,99.90
2022-08-02T02:28:14.443Z,99.90
2022-08-02T02:30:47.917Z,99.90
2022-08-02T02:33:18.544Z,99.90
2022-08-02T02:35:50.150Z,99.90
2022-08-02T02:38:20.833Z,99.90
2022-08-02T02:40:48.961Z,99.90
2022-08-02T02:43:17.743Z,99.90
2022-08-02T02:45:46.429Z,99.90
2022-08-02T02:48:15.372Z,99.90
2022-08-02T02:50:43.683Z,99.90
2022-08-02T02:53:13.631Z,99.90
2022-08-02T02:55:42.571Z,99.90
2022-08-02T02:58:30.652Z,99.90
2022-08-02T03:01:16.824Z,99.90
2022-08-02T03:03:45.823Z,99.90
2022-08-02T03:06:15.931Z,99.90
2022-08-02T03:08:43.941Z,99.90
2022-08-02T03:11:11.641Z,99.90
2022-08-02T03:13:39.971Z,99.90
2022-08-02T03:16:07.613Z,99.90
2022-08-02T03:18:39.886Z,99.90
2022-08-02T03:21:09.812Z,99.90
2022-08-02T03:23:37.007Z,99.90
2022-08-02T03:26:04.599Z,99.90
2022-08-02T03:28:32.304Z,99.90
2022-08-02T03:30:59.662Z,99.90
2022-08-02T03:33:28.366Z,99.90
2022-08-02T03:35:59.443Z,99.90
2022-08-02T03:38:30.820Z,99.90
2022-08-02T03:40:59.057Z,99.90
2022-08-02T03:43:28.866Z,99.90
2022-08-02T03:45:57.104Z,99.90
2022-08-02T03:48:34.140Z,99.90
2022-08-02T03:51:03.268Z,99.90
2022-08-02T03:53:31.664Z,99.90
2022-08-02T03:55:59.713Z,99.90
2022-08-02T03:58:27.736Z,99.90
2022-08-02T04:00:57.707Z,99.90
2022-08-02T04:03:25.620Z,99.90
2022-08-02T04:06:03.585Z,99.90
2022-08-02T04:08:37.693Z,99.90
2022-08-02T04:11:25.220Z,99.90
2022-08-02T04:13:54.723Z,99.90
2022-08-02T04:16:31.549Z,99.90
2022-08-02T04:19:02.572Z,99.90
2022-08-02T04:21:48.446Z,99.90
2022-08-02T04:24:20.086Z,99.90
2022-08-02T04:26:51.895Z,99.90
2022-08-02T04:29:20.869Z,99.90
2022-08-02T04:31:48.787Z,99.90
2022-08-02T04:34:16.372Z,99.90
2022-08-02T04:36:43.745Z,99.90
2022-08-02T04:39:10.965Z,99.90
2022-08-02T04:41:43.946Z,99.90
2022-08-02T04:44:14.684Z,99.90
2022-08-02T04:46:44.013Z,99.90
2022-08-02T04:49:11.734Z,99.90
2022-08-02T04:51:40.788Z,99.90
2022-08-02T04:54:10.515Z,99.90
2022-08-02T04:56:38.602Z,99.90
2022-08-02T04:59:06.733Z,99.90
2022-08-02T05:01:35.901Z,99.90
2022-08-02T05:04:04.027Z,99.90
2022-08-02T05:06:32.071Z,99.90
2022-08-02T05:08:59.342Z,99.90
2022-08-02T05:11:36.361Z,99.90
2022-08-02T05:14:05.697Z,99.90
2022-08-02T05:16:33.482Z,99.90
2022-08-02T05:19:02.286Z,99.90
2022-08-02T05:21:31.854Z,99.90
2022-08-02T05:23:59.363Z,99.90
2022-08-02T05:26:26.551Z,99.90
2022-08-02T05:28:54.026Z,99.90
2022-08-02T05:31:21.332Z,99.90
2022-08-02T05:33:48.538Z,99.90
2022-08-02T05:36:16.034Z,99.90
2022-08-02T05:38:49.750Z,99.90
2022-08-02T05:41:19.592Z,99.90
2022-08-02T05:43:47.697Z,99.90
2022-08-02T05:46:15.163Z,99.90
2022-08-02T05:48:42.496Z,99.90
2022-08-02T05:51:16.671Z,99.90
2022-08-02T05:53:59.306Z,99.90
2022-08-02T05:56:34.670Z,99.90
2022-08-02T05:59:26.107Z,99.90
2022-08-02T06:01:58.696Z,99.90
2022-08-02T06:04:32.793Z,99.90
2022-08-02T06:07:06.932Z,99.90
2022-08-02T06:09:36.179Z,99.90
2022-08-02T06:12:05.053Z,99.90
2022-08-02T06:14:33.979Z,99.90
2022-08-02T06:17:05.862Z,99.90
2022-08-02T06:19:46.870Z,99.90
2022-08-02T06:22:33.422Z,99.90
2022-08-02T06:25:04.777Z,99.90
2022-08-02T06:27:33.545Z,99.90
2022-08-02T06:30:02.171Z,99.90
2022-08-02T06:32:29.512Z,99.90
2022-08-02T06:34:56.939Z,99.90
2022-08-02T06:37:39.100Z,99.90
2022-08-02T06:40:25.890Z,99.90
2022-08-02T06:43:19.281Z,99.90
2022-08-02T06:45:46.663Z,99.90
2022-08-02T06:48:14.159Z,99.90
2022-08-02T06:50:44.467Z,99.90
2022-08-02T06:53:12.864Z,99.90
2022-08-02T06:55:44.067Z,99.90
2022-08-02T06:58:12.653Z,99.90
2022-08-02T07:00:40.589Z,99.90
2022-08-02T07:03:10.671Z,99.60
2022-08-02T07:05:38.218Z,99.40
2022-08-02T07:08:05.692Z,98.80
2022-08-02T07:10:33.101Z,98.50
2022-08-02T07:13:00.417Z,97.80
2022-08-02T07:15:27.676Z,97.50
2022-08-02T07:17:55.058Z,97.40
2022-08-02T07:20:22.173Z,97.40
2022-08-02T07:22:49.809Z,97.50
2022-08-02T07:25:17.331Z,97.60
2022-08-02T07:27:44.749Z,97.30
2022-08-02T07:30:12.495Z,97.00
2022-08-02T07:32:39.959Z,96.80
2022-08-02T07:35:08.369Z,96.80
2022-08-02T07:37:54.859Z,96.90
2022-08-02T07:40:27.234Z,97.10
2022-08-02T07:43:00.928Z,97.30
2022-08-02T07:45:31.506Z,97.50
2022-08-02T07:47:58.873Z,97.80
2022-08-02T07:50:26.552Z,97.90
2022-08-02T07:52:57.675Z,98.00
2022-08-02T07:55:40.153Z,98.10
2022-08-02T07:58:11.226Z,98.20
2022-08-02T08:00:41.201Z,98.30
2022-08-02T08:03:08.488Z,98.40
2022-08-02T08:05:36.685Z,98.40
2022-08-02T08:08:04.263Z,98.50
2022-08-02T08:10:32.554Z,98.50
2022-08-02T08:12:59.977Z,98.60
2022-08-02T08:15:27.461Z,99.00
2022-08-02T08:17:54.839Z,98.80
2022-08-02T08:20:22.305Z,99.00
2022-08-02T08:22:50.418Z,99.00
2022-08-02T08:25:17.748Z,99.10
2022-08-02T08:27:52.526Z,99.10
2022-08-02T08:30:23.271Z,99.30
2022-08-02T08:32:50.920Z,99.30
2022-08-02T08:35:18.511Z,99.30
2022-08-02T08:37:45.931Z,99.20
2022-08-02T08:40:13.724Z,99.30
2022-08-02T08:42:47.135Z,99.40
2022-08-02T08:45:14.367Z,99.60
2022-08-02T08:47:43.202Z,99.60
2022-08-02T08:50:18.847Z,99.40
2022-08-02T08:53:14.249Z,99.30
2022-08-02T08:55:41.970Z,99.20
2022-08-02T08:58:09.233Z,99.30
2022-08-02T09:00:37.039Z,99.50
2022-08-02T09:03:06.621Z,99.20
2022-08-02T09:05:40.738Z,99.10
2022-08-02T09:08:11.315Z,99.10
2022-08-02T09:10:44.261Z,99.00
2022-08-02T09:13:31.208Z,99.10
2022-08-02T09:16:12.209Z,99.00
2022-08-02T09:18:45.196Z,99.10
2022-08-02T09:21:15.612Z,99.20
2022-08-02T09:23:50.140Z,99.30
2022-08-02T09:26:19.569Z,99.20
2022-08-02T09:28:52.666Z,99.10
2022-08-02T09:31:22.927Z,99.10
2022-08-02T09:33:56.582Z,99.20
2022-08-02T09:36:25.292Z,99.10
2022-08-02T09:39:04.467Z,99.10
2022-08-02T09:41:34.416Z,99.00
2022-08-02T09:44:06.469Z,99.00
2022-08-02T09:46:39.709Z,98.90
2022-08-02T09:49:08.770Z,98.50
2022-08-02T09:51:41.509Z,98.10
2022-08-02T09:54:12.291Z,98.00
2022-08-02T09:56:53.602Z,97.90
2022-08-02T09:59:23.387Z,97.50
2022-08-02T10:02:01.355Z,97.40
2022-08-02T10:04:33.752Z,97.10
2022-08-02T10:07:04.800Z,96.90
2022-08-02T10:09:33.510Z,96.30
2022-08-02T10:12:03.330Z,95.90
2022-08-02T10:14:33.721Z,95.30
2022-08-02T10:17:01.795Z,94.60
2022-08-02T10:20:03.048Z,94.00
2022-08-02T10:22:19.866Z,93.80
2022-08-02T10:24:48.885Z,93.30
2022-08-02T10:27:21.589Z,93.30
2022-08-02T10:29:55.326Z,93.10
2022-08-02T10:32:37.994Z,92.70
2022-08-02T10:35:20.044Z,92.60
2022-08-02T10:38:11.917Z,92.60
2022-08-02T10:40:54.386Z,92.20
2022-08-02T10:43:37.117Z,91.10
2022-08-02T10:46:24.618Z,91.20
2022-08-02T10:49:37.377Z,91.00
2022-08-02T10:51:58.834Z,90.70
2022-08-02T10:54:43.684Z,90.10
2022-08-02T10:57:27.454Z,90.10
2022-08-02T11:00:01.297Z,89.30
2022-08-02T11:02:41.956Z,88.40
2022-08-02T11:05:10.269Z,88.80
2022-08-02T11:07:49.344Z,89.10
2022-08-02T11:10:28.980Z,89.00
2022-08-02T11:13:06.704Z,88.00
2022-08-02T11:15:53.021Z,86.90
2022-08-02T11:18:21.810Z,86.70
2022-08-02T11:21:28.630Z,86.00
2022-08-02T11:23:57.328Z,87.40
2022-08-02T11:26:43.768Z,87.40
2022-08-02T11:29:16.031Z,87.30
2022-08-02T11:31:45.627Z,87.00
2022-08-02T11:34:36.658Z,87.50
2022-08-02T11:37:01.095Z,86.80
2022-08-02T11:39:28.512Z,84.50
2022-08-02T11:41:58.794Z,82.00
2022-08-02T11:44:39.426Z,81.20
2022-08-02T11:47:08.541Z,80.40
2022-08-02T11:49:37.473Z,79.80
2022-08-02T11:52:07.493Z,79.40
2022-08-02T11:54:37.294Z,79.10
2022-08-02T11:57:22.049Z,78.20
2022-08-02T11:59:52.094Z,78.10
2022-08-02T12:02:21.831Z,79.00
2022-08-02T12:05:04.209Z,80.10
2022-08-02T12:07:36.532Z,79.70
2022-08-02T12:10:03.866Z,79.10
2022-08-02T12:12:31.104Z,78.40
2022-08-02T12:14:58.447Z,78.70
2022-08-02T12:17:47.916Z,78.90
2022-08-02T12:20:17.498Z,78.30
2022-08-02T12:22:44.830Z,78.00
2022-08-02T12:25:34.293Z,78.10
2022-08-02T12:28:20.206Z,77.60
2022-08-02T12:31:15.019Z,76.30
2022-08-02T12:33:51.356Z,74.90
2022-08-02T12:36:22.383Z,74.40
2022-08-02T12:39:00.458Z,74.00
2022-08-02T12:41:32.748Z,74.20
2022-08-02T12:44:01.366Z,73.70
2022-08-02T12:46:28.862Z,73.10
2022-08-02T12:49:16.994Z,73.40
2022-08-02T12:51:51.154Z,73.20
2022-08-02T12:54:31.772Z,74.00
2022-08-02T12:57:21.157Z,74.50
2022-08-02T12:59:54.313Z,75.00
2022-08-02T13:02:21.931Z,75.20
2022-08-02T13:04:50.592Z,73.70
2022-08-02T13:07:19.256Z,72.80
2022-08-02T13:09:48.643Z,72.10
2022-08-02T13:12:16.904Z,71.00
2022-08-02T13:14:44.695Z,70.30
2022-08-02T13:17:12.477Z,67.80
2022-08-02T13:19:41.146Z,66.50
2022-08-02T13:22:10.698Z,67.40
2022-08-02T13:24:55.376Z,67.00
2022-08-02T13:27:25.373Z,65.60
2022-08-02T13:29:53.870Z,64.70
2022-08-02T13:35:02.575Z,65.50
2022-08-02T13:37:32.545Z,65.60
2022-08-02T13:40:21.100Z,66.70
2022-08-02T13:42:49.422Z,67.00
2022-08-02T13:45:17.152Z,65.40
2022-08-02T13:47:57.356Z,65.00
2022-08-02T13:50:32.600Z,64.20
2022-08-02T13:53:00.068Z,63.80
2022-08-02T13:55:28.405Z,63.50
2022-08-02T13:57:55.745Z,62.90
2022-08-02T14:00:35.746Z,62.20
2022-08-02T14:03:07.726Z,62.90
2022-08-02T14:05:48.166Z,63.10
2022-08-02T14:08:20.579Z,62.90
2022-08-02T14:10:48.462Z,63.00
2022-08-02T14:13:19.701Z,63.70
2022-08-02T14:15:47.701Z,64.00
2022-08-02T14:18:15.753Z,64.50
2022-08-02T14:20:46.776Z,65.10
2022-08-02T14:23:17.526Z,63.90
2022-08-02T14:25:45.056Z,62.90
2022-08-02T14:28:12.383Z,63.00
2022-08-02T14:30:45.298Z,62.80
2022-08-02T14:33:15.903Z,61.30
2022-08-02T14:35:43.370Z,61.10
2022-08-02T14:38:10.820Z,61.20
2022-08-02T14:40:38.222Z,62.00
2022-08-02T14:43:05.792Z,61.60
2022-08-02T14:45:40.367Z,60.20
2022-08-02T14:48:10.395Z,60.70
2022-08-02T14:50:37.700Z,59.50
2022-08-02T14:53:05.014Z,59.10
2022-08-02T14:55:35.303Z,59.00
2022-08-02T14:58:02.513Z,58.50
2022-08-02T15:00:30.340Z,58.40
2022-08-02T15:02:57.678Z,59.00
2022-08-02T15:05:25.083Z,58.40
2022-08-02T15:07:52.304Z,58.10
2022-08-02T15:10:19.591Z,58.00
2022-08-02T15:12:46.989Z,58.40
2022-08-02T15:15:14.317Z,59.10
2022-08-02T15:17:41.722Z,58.30
2022-08-02T15:20:09.706Z,58.20
2022-08-02T15:22:53.304Z,57.80
2022-08-02T15:25:21.995Z,57.50
2022-08-02T15:27:49.374Z,56.60
2022-08-02T15:30:16.853Z,56.10
2022-08-02T15:32:53.069Z,55.50
2022-08-02T15:35:20.919Z,55.50
2022-08-02T15:37:48.268Z,56.10
2022-08-02T15:40:15.590Z,55.70
2022-08-02T15:42:44.003Z,55.20
2022-08-02T15:45:14.551Z,55.20
2022-08-02T15:47:48.030Z,54.40
2022-08-02T15:50:18.799Z,53.60
2022-08-02T15:52:46.092Z,53.40
2022-08-02T15:55:14.025Z,53.30
2022-08-02T15:57:41.314Z,53.10
2022-08-02T16:00:18.549Z,52.90
2022-08-02T16:02:47.052Z,53.20
2022-08-02T16:05:18.486Z,53.40
2022-08-02T16:07:46.372Z,53.30
2022-08-02T16:10:14.607Z,53.50
2022-08-02T16:12:41.897Z,53.60
2022-08-02T16:15:09.823Z,53.60
2022-08-02T16:17:52.074Z,54.60
2022-08-02T16:20:22.578Z,53.60
2022-08-02T16:22:49.890Z,53.20
2022-08-02T16:25:17.643Z,53.30
2022-08-02T16:28:05.883Z,53.90
2022-08-02T16:30:32.945Z,54.10
2022-08-02T16:33:00.230Z,53.80
2022-08-02T16:35:30.730Z,53.40
2022-08-02T16:37:57.943Z,52.90
2022-08-02T16:40:25.514Z,52.90
2022-08-02T16:42:52.939Z,53.20
2022-08-02T16:45:22.604Z,53.10
2022-08-02T16:47:56.117Z,53.90
2022-08-02T16:50:28.105Z,54.40
2022-08-02T16:52:59.259Z,55.10
2022-08-02T16:55:29.327Z,55.00
2022-08-02T16:57:58.459Z,54.90
2022-08-02T17:00:25.695Z,54.80
2022-08-02T17:02:53.945Z,54.70
2022-08-02T17:05:37.540Z,55.40
2022-08-02T17:08:07.318Z,55.60
2022-08-02T17:10:45.062Z,56.10
2022-08-02T17:13:12.472Z,55.70
2022-08-02T17:16:17.298Z,56.50
2022-08-02T17:18:29.927Z,57.20
2022-08-02T17:20:57.433Z,57.70
2022-08-02T17:24:03.872Z,58.10
2022-08-02T17:26:13.357Z,58.00
2022-08-02T17:28:56.484Z,58.10
2022-08-02T17:31:29.635Z,58.90
2022-08-02T17:33:58.463Z,59.80
2022-08-02T17:36:26.330Z,59.80
2022-08-02T17:38:53.724Z,60.00
2022-08-02T17:41:37.415Z,60.90
2022-08-02T17:44:08.972Z,61.30
2022-08-02T17:46:38.858Z,61.50
2022-08-02T17:49:18.340Z,62.50
2022-08-02T17:52:47.906Z,63.00
2022-08-02T17:54:33.842Z,64.00
2022-08-02T17:57:01.311Z,65.30
2022-08-02T17:59:42.123Z,66.60
2022-08-02T18:02:11.496Z,67.30
2022-08-02T18:04:39.678Z,67.10
2022-08-02T18:07:09.755Z,67.00
2022-08-02T18:09:43.347Z,67.40
2022-08-02T18:12:15.033Z,67.80
2022-08-02T18:14:46.096Z,68.50
2022-08-02T18:17:17.070Z,69.50
2022-08-02T18:19:57.375Z,70.60
2022-08-02T18:22:30.864Z,71.80
2022-08-02T18:24:58.366Z,73.20
2022-08-02T18:27:25.659Z,74.40
2022-08-02T18:30:00.188Z,74.60
2022-08-02T18:33:53.871Z,73.90
2022-08-02T18:35:20.145Z,72.70
2022-08-02T18:37:56.714Z,72.20
2022-08-02T18:40:24.827Z,72.70
2022-08-02T18:42:53.430Z,73.50
2022-08-02T18:45:22.141Z,73.70
2022-08-02T18:47:51.427Z,74.00
2022-08-02T18:50:20.189Z,74.80
2022-08-02T18:52:50.689Z,75.10
2022-08-02T18:55:58.970Z,75.90
2022-08-02T18:58:19.766Z,77.10
2022-08-02T19:00:51.566Z,78.20
2022-08-02T19:03:19.676Z,79.40
2022-08-02T19:05:51.775Z,79.90
2022-08-02T19:11:09.092Z,80.50
2022-08-02T19:13:42.277Z,81.30
2022-08-02T19:16:09.957Z,82.00
2022-08-02T19:18:37.911Z,82.80
2022-08-02T19:21:07.500Z,83.40
2022-08-02T19:23:35.950Z,83.40
2022-08-02T19:26:03.995Z,83.40
2022-08-02T19:28:31.446Z,83.50
2022-08-02T19:30:58.967Z,83.90
2022-08-02T19:34:06.018Z,84.10
2022-08-02T19:36:16.939Z,84.30
2022-08-02T19:38:45.680Z,84.60
2022-08-02T19:41:16.999Z,84.60
2022-08-02T19:44:26.859Z,84.70
2022-08-02T19:46:36.769Z,85.20
2022-08-02T19:49:20.189Z,85.60
2022-08-02T19:51:56.504Z,85.70
2022-08-02T19:54:53.934Z,86.30
2022-08-02T19:57:13.709Z,87.10
2022-08-02T19:59:44.625Z,87.50
2022-08-02T20:02:12.264Z,87.40
2022-08-02T20:04:40.153Z,87.20
2022-08-02T20:07:07.482Z,86.90
2022-08-02T20:09:47.066Z,86.50
2022-08-02T20:12:15.262Z,86.30
2022-08-02T20:14:51.030Z,86.10
2022-08-02T20:17:20.882Z,86.40
2022-08-02T20:19:48.718Z,87.10
2022-08-02T20:22:16.551Z,87.90
2022-08-02T20:24:44.326Z,88.80
2022-08-02T20:27:17.371Z,89.60
2022-08-02T20:29:51.317Z,90.10
2022-08-02T20:32:23.627Z,90.30
2022-08-02T20:34:52.405Z,90.60
2022-08-02T20:37:59.722Z,90.80
2022-08-02T20:40:09.578Z,90.80
2022-08-02T20:42:37.112Z,90.90
2022-08-02T20:45:07.045Z,90.70
2022-08-02T20:47:39.799Z,90.60
2022-08-02T20:50:30.379Z,90.50
2022-08-02T20:52:58.267Z,90.50
2022-08-02T20:55:25.846Z,90.50
2022-08-02T20:58:00.838Z,90.60
2022-08-02T21:00:29.891Z,91.00
2022-08-02T21:02:57.203Z,91.50
2022-08-02T21:05:43.647Z,92.00
2022-08-02T21:08:14.911Z,92.30
2022-08-02T21:10:43.951Z,92.30
2022-08-02T21:13:23.242Z,92.50
2022-08-02T21:15:55.779Z,92.70
2022-08-02T21:18:34.243Z,92.90
2022-08-02T21:21:08.689Z,93.00
2022-08-02T21:23:36.986Z,92.90
2022-08-02T21:26:09.158Z,92.70
2022-08-02T21:28:43.506Z,92.60
2022-08-02T21:31:24.361Z,92.50
2022-08-02T21:34:00.838Z,92.20
2022-08-02T21:36:33.460Z,92.00
2022-08-02T21:39:04.987Z,91.80
2022-08-02T21:41:46.235Z,91.70
2022-08-02T21:44:24.325Z,91.70
2022-08-02T21:46:54.166Z,91.80
2022-08-02T21:49:40.860Z,91.80
2022-08-02T21:52:10.329Z,91.90
2022-08-02T21:54:39.646Z,91.80
2022-08-02T21:57:15.534Z,91.80
2022-08-02T21:59:52.859Z,92.00
2022-08-02T22:02:31.054Z,92.40
2022-08-02T22:04:58.581Z,92.80
2022-08-02T22:07:25.805Z,93.10
2022-08-02T22:09:54.010Z,93.30
2022-08-02T22:12:26.287Z,93.50
2022-08-02T22:14:56.364Z,93.80
2022-08-02T22:17:51.270Z,94.00
2022-08-02T22:20:20.050Z,94.10
2022-08-02T22:22:50.453Z,94.20
2022-08-02T22:25:26.531Z,94.10
2022-08-02T22:28:37.645Z,94.10
2022-08-02T22:30:53.574Z,94.40
2022-08-02T22:33:42.542Z,94.60
2022-08-02T22:36:16.569Z,94.80
2022-08-02T22:38:45.161Z,94.90
2022-08-02T22:41:14.242Z,94.90
2022-08-02T22:43:42.980Z,95.00
2022-08-02T22:46:15.485Z,95.10
2022-08-02T22:48:44.613Z,95.20
2022-08-02T22:51:13.965Z,95.30
2022-08-02T22:53:45.011Z,95.50
2022-08-02T22:56:13.998Z,95.60
2022-08-02T22:59:00.513Z,80.20
2022-08-02T23:01:30.762Z,95.90
2022-08-02T23:03:58.114Z,96.10
2022-08-02T23:06:25.867Z,96.30
2022-08-02T23:08:53.073Z,96.50
2022-08-02T23:11:20.373Z,96.70
2022-08-02T23:13:47.640Z,96.90
2022-08-02T23:16:41.475Z,97.10
2022-08-02T23:19:28.032Z,97.20
2022-08-02T23:22:02.516Z,97.30
2022-08-02T23:24:33.881Z,97.50
2022-08-02T23:27:01.660Z,97.70
2022-08-02T23:29:29.487Z,97.70
2022-08-02T23:31:56.670Z,97.80
2022-08-02T23:34:26.450Z,97.90
2022-08-02T23:36:53.766Z,98.10
2022-08-02T23:39:21.032Z,98.40
2022-08-02T23:41:54.714Z,98.60
2022-08-02T23:44:23.090Z,98.70
2022-08-02T23:46:50.560Z,98.90
2022-08-02T23:49:18.096Z,99.10
2022-08-02T23:51:45.877Z,99.30
2022-08-02T23:54:13.760Z,99.40
2022-08-02T23:56:41.485Z,99.50
2022-08-02T23:59:09.009Z,99.70
